Time;durP1;ratioP1;P1;durP2;ratioP2;P2;SDS_P1;SDS_P2;PMS_P1;PMS_P2;Temp;Humidity;BMP_temperature;BMP_pressure;BME280_temperature;BME280_humidity;BME280_pressure;Samples;Min_cycle;Max_cycle;Signal;HPM_P1;HPM_P2
2022/03/27 00:01:39;;;;;;;;;3.75;3.75;;;;;9.37;93.46;103239.06;4981360;28;10607;-69
2022/03/27 00:04:05;;;;;;;;;4.75;2.50;;;;;9.32;94.90;103239.44;4973977;28;10334;-69
2022/03/27 00:06:32;;;;;;;;;10.75;7.75;;;;;9.30;95.30;103240.56;4981599;28;10634;-69
2022/03/27 00:08:58;;;;;;;;;5.75;5.75;;;;;9.18;96.27;103235.16;4985871;28;10671;-69
2022/03/27 00:11:25;;;;;;;;;6.00;6.00;;;;;9.18;96.21;103245.09;4992270;28;10842;-70
2022/03/27 00:13:57;;;;;;;;;7.50;5.75;;;;;9.16;95.61;103247.03;4978008;28;10779;-70
2022/03/27 00:16:24;;;;;;;;;4.00;4.00;;;;;8.99;96.41;103236.72;4975963;28;10730;-69
2022/03/27 00:18:51;;;;;;;;;5.75;5.00;;;;;9.07;94.52;103239.66;4974187;28;10764;-70
2022/03/27 00:21:19;;;;;;;;;3.75;3.75;;;;;9.01;94.37;103237.44;4974007;28;10736;-69
2022/03/27 00:23:47;;;;;;;;;4.50;3.00;;;;;8.91;95.04;103231.88;4972543;28;10690;-70
2022/03/27 00:26:15;;;;;;;;;7.50;5.25;;;;;8.88;94.67;103227.59;4964990;28;10539;-70
2022/03/27 00:28:42;;;;;;;;;6.00;4.50;;;;;8.83;96.19;103223.53;4971948;28;10638;-70
2022/03/27 00:31:10;;;;;;;;;2.00;2.00;;;;;8.88;96.23;103227.59;4961118;28;10712;-70
2022/03/27 00:33:39;;;;;;;;;3.00;3.00;;;;;8.72;95.88;103226.22;4973388;28;10522;-69
2022/03/27 00:36:07;;;;;;;;;5.25;5.00;;;;;8.56;95.76;103226.53;4971902;28;10640;-70
2022/03/27 00:38:34;;;;;;;;;5.25;4.50;;;;;8.72;96.59;103216.28;4973491;28;10563;-68
2022/03/27 00:41:01;;;;;;;;;3.50;3.50;;;;;8.92;95.96;103234.50;4984232;28;10397;-68
2022/03/27 00:43:28;;;;;;;;;6.50;6.50;;;;;8.78;95.17;103232.00;4984282;28;10640;-70
2022/03/27 00:45:55;;;;;;;;;7.75;6.50;;;;;8.78;95.99;103228.44;4953762;28;10622;-69
2022/03/27 00:48:23;;;;;;;;;4.00;3.50;;;;;8.82;96.66;103222.66;4962577;28;10709;-68
2022/03/27 00:50:52;;;;;;;;;7.25;6.25;;;;;8.94;95.50;103227.13;4971637;28;10634;-68
2022/03/27 00:53:21;;;;;;;;;10.00;7.25;;;;;9.01;95.05;103229.34;4945862;28;10813;-69
2022/03/27 00:55:48;;;;;;;;;8.50;6.25;;;;;9.03;94.38;103233.66;4957914;28;10734;-69
2022/03/27 00:58:18;;;;;;;;;5.50;5.50;;;;;9.11;93.84;103227.63;4994009;28;10539;-69
2022/03/27 01:00:56;;;;;;;;;7.00;4.25;;;;;9.10;93.24;103228.63;4982834;28;10742;-68
2022/03/27 01:03:25;;;;;;;;;4.50;3.50;;;;;9.13;93.49;103231.06;4991010;28;10786;-68
2022/03/27 01:05:54;;;;;;;;;6.50;6.50;;;;;8.98;93.32;103222.34;4978839;28;10610;-69
2022/03/27 01:11:18;;;;;;;;;6.00;6.00;;;;;8.68;95.07;103216.63;4967276;28;10722;-69
2022/03/27 01:13:52;;;;;;;;;8.00;7.25;;;;;8.83;96.36;103216.28;4963638;28;10736;-70
2022/03/27 01:16:43;;;;;;;;;9.00;5.50;;;;;8.79;95.71;103213.94;4964595;28;10849;-68
2022/03/27 01:19:12;;;;;;;;;7.25;7.25;;;;;8.84;94.87;103223.41;4960076;28;10729;-68
2022/03/27 01:21:42;;;;;;;;;5.50;3.50;;;;;8.89;94.90;103218.50;4961809;28;10574;-70
2022/03/27 01:24:10;;;;;;;;;10.25;8.50;;;;;8.78;94.87;103215.78;4963351;28;10687;-70
2022/03/27 01:26:39;;;;;;;;;10.75;8.25;;;;;8.74;94.49;103208.03;4964872;28;10756;-69
2022/03/27 01:29:06;;;;;;;;;7.50;7.00;;;;;8.65;96.51;103217.69;4963006;28;10682;-70
2022/03/27 01:31:34;;;;;;;;;7.00;5.00;;;;;8.52;95.63;103211.53;4960972;28;10644;-70
2022/03/27 01:34:01;;;;;;;;;8.50;7.75;;;;;8.58;95.98;103206.53;4963218;28;10821;-70
2022/03/27 01:36:34;;;;;;;;;6.00;4.00;;;;;8.56;95.49;103203.06;4963443;28;10908;-70
2022/03/27 01:39:06;;;;;;;;;7.75;7.25;;;;;8.59;95.52;103210.06;4961397;28;10552;-69
2022/03/27 01:41:33;;;;;;;;;12.50;11.00;;;;;8.59;95.11;103205.53;4961161;28;10849;-68
2022/03/27 01:44:00;;;;;;;;;8.75;6.00;;;;;8.72;95.23;103212.72;4964372;28;10792;-68
2022/03/27 01:46:35;;;;;;;;;6.25;5.00;;;;;8.78;94.97;103214.94;4960990;28;10760;-68
2022/03/27 01:49:04;;;;;;;;;7.75;7.75;;;;;8.49;94.04;103212.63;4963768;28;10759;-69
2022/03/27 01:51:31;;;;;;;;;6.00;6.00;;;;;8.61;94.36;103213.53;4963136;28;10905;-71
2022/03/27 01:53:59;;;;;;;;;9.25;7.75;;;;;8.64;94.06;103218.69;4961373;28;11353;-70
2022/03/27 01:56:26;;;;;;;;;8.00;8.00;;;;;8.71;93.33;103224.50;4957914;28;10780;-71
2022/03/27 01:58:53;;;;;;;;;8.00;7.00;;;;;8.75;93.72;103213.31;4962227;28;10717;-71
2022/03/27 02:01:20;;;;;;;;;10.25;8.50;;;;;8.58;94.51;103214.63;4957887;28;10750;-70
2022/03/27 02:03:48;;;;;;;;;5.50;5.50;;;;;8.58;94.26;103222.72;4964792;28;10720;-70
2022/03/27 02:06:15;;;;;;;;;11.00;8.75;;;;;8.63;94.63;103219.66;4962192;28;10801;-71
2022/03/27 02:08:43;;;;;;;;;17.25;12.25;;;;;8.62;94.21;103215.25;4967023;28;10813;-71
2022/03/27 02:11:11;;;;;;;;;6.25;6.00;;;;;8.43;94.13;103221.22;4961784;28;10908;-71
2022/03/27 02:13:37;;;;;;;;;11.25;10.00;;;;;8.51;94.27;103215.22;4964816;28;10713;-69
2022/03/27 02:16:04;;;;;;;;;9.75;7.25;;;;;8.56;94.49;103210.31;4964627;28;10929;-69
2022/03/27 02:18:31;;;;;;;;;11.00;11.00;;;;;8.53;94.23;103215.97;4961428;28;10829;-69
2022/03/27 02:21:02;;;;;;;;;9.50;9.00;;;;;8.48;94.24;103215.44;4963275;28;10924;-70
2022/03/27 02:23:30;;;;;;;;;12.00;11.00;;;;;8.41;94.53;103225.84;4964665;28;10879;-70
2022/03/27 02:25:56;;;;;;;;;6.50;5.00;;;;;8.42;93.91;103221.28;4962835;28;11040;-69
2022/03/27 02:28:23;;;;;;;;;9.75;8.75;;;;;8.32;93.62;103231.91;4955853;28;10714;-70
2022/03/27 02:30:51;;;;;;;;;9.00;9.00;;;;;8.19;94.48;103220.31;4964580;28;10627;-69
2022/03/27 02:33:18;;;;;;;;;3.00;3.00;;;;;8.37;95.00;103221.66;4962607;28;10783;-69
2022/03/27 02:35:45;;;;;;;;;4.00;4.00;;;;;8.25;93.85;103225.25;4961612;28;10649;-70
2022/03/27 02:38:12;;;;;;;;;4.75;4.75;;;;;8.18;93.18;103208.66;4960519;28;10618;-68
2022/03/27 02:40:40;;;;;;;;;6.00;4.75;;;;;8.11;93.72;103207.38;4961502;28;10641;-69
2022/03/27 02:43:07;;;;;;;;;4.25;4.25;;;;;8.28;94.18;103212.38;4960072;28;10791;-69
2022/03/27 02:45:34;;;;;;;;;9.75;6.00;;;;;8.40;94.64;103201.66;4965528;28;10688;-68
2022/03/27 02:48:00;;;;;;;;;4.00;4.00;;;;;8.35;93.29;103204.72;4963118;28;10718;-69
2022/03/27 02:50:29;;;;;;;;;4.25;3.50;;;;;8.30;94.21;103209.56;4963688;28;10768;-68
2022/03/27 02:52:57;;;;;;;;;7.00;6.00;;;;;8.21;94.53;103207.56;4966071;28;10623;-68
2022/03/27 02:55:24;;;;;;;;;6.25;5.50;;;;;8.07;95.48;103208.59;4962646;28;10973;-69
2022/03/27 02:57:52;;;;;;;;;9.25;7.25;;;;;8.01;94.63;103206.38;4963131;28;10788;-68
2022/03/27 03:00:19;;;;;;;;;5.25;5.25;;;;;7.86;95.20;103197.56;4955156;28;10682;-70
2022/03/27 03:02:46;;;;;;;;;5.00;5.00;;;;;8.01;95.15;103195.56;4961600;28;10862;-69
2022/03/27 03:05:13;;;;;;;;;3.00;3.00;;;;;8.22;95.38;103193.97;4969144;28;10794;-69
2022/03/27 03:07:43;;;;;;;;;6.75;5.00;;;;;8.10;94.36;103202.09;4985122;28;10756;-69
2022/03/27 03:10:11;;;;;;;;;5.75;5.75;;;;;7.77;94.31;103200.94;4960519;28;10894;-70
2022/03/27 03:12:39;;;;;;;;;3.00;3.00;;;;;7.72;95.68;103197.72;4970480;28;10770;-70
2022/03/27 03:15:06;;;;;;;;;4.75;4.75;;;;;7.70;95.02;103195.16;4966235;28;10756;-70
2022/03/27 03:17:36;;;;;;;;;5.75;4.00;;;;;7.79;95.53;103190.03;4969609;28;10583;-72
2022/03/27 03:20:03;;;;;;;;;4.75;3.50;;;;;7.76;96.49;103184.88;4979897;28;10728;-68
2022/03/27 03:22:30;;;;;;;;;7.00;6.00;;;;;7.68;96.36;103197.09;4966563;28;10865;-69
2022/03/27 03:24:57;;;;;;;;;4.00;2.50;;;;;7.82;96.76;103189.81;4971240;28;10952;-68
2022/03/27 03:27:23;;;;;;;;;6.00;6.00;;;;;7.59;95.28;103191.50;4967540;28;10855;-69
2022/03/27 03:29:50;;;;;;;;;5.00;5.00;;;;;7.72;95.41;103181.56;4970404;28;10777;-72
2022/03/27 03:32:16;;;;;;;;;8.00;5.75;;;;;7.64;95.37;103186.63;4963439;28;11089;-71
2022/03/27 03:34:43;;;;;;;;;3.50;3.50;;;;;7.73;94.98;103183.28;4969327;28;10896;-69
2022/03/27 03:37:10;;;;;;;;;6.25;4.75;;;;;7.87;94.76;103184.94;4967074;28;10937;-68
2022/03/27 03:39:36;;;;;;;;;5.25;4.25;;;;;7.91;93.68;103181.03;4963363;28;10790;-68
2022/03/27 03:42:03;;;;;;;;;3.50;3.50;;;;;8.06;92.49;103181.75;4969443;28;10951;-69
2022/03/27 03:44:29;;;;;;;;;9.75;6.25;;;;;7.94;91.99;103184.38;4964097;28;10820;-68
2022/03/27 03:46:56;;;;;;;;;4.00;4.00;;;;;7.92;92.87;103201.63;4962963;28;10883;-68
2022/03/27 03:49:24;;;;;;;;;2.00;2.00;;;;;7.88;92.03;103194.75;4968665;28;10787;-70
2022/03/27 03:51:51;;;;;;;;;6.00;5.00;;;;;7.92;92.22;103191.69;4965511;28;10636;-68
2022/03/27 03:54:18;;;;;;;;;5.75;2.50;;;;;8.00;92.53;103177.66;4964600;28;10774;-69
2022/03/27 03:56:45;;;;;;;;;5.25;3.75;;;;;7.95;91.25;103177.16;4966766;28;10975;-68
2022/03/27 03:59:11;;;;;;;;;5.00;5.00;;;;;8.08;91.14;103177.09;4970467;28;10679;-70
2022/03/27 04:01:56;;;;;;;;;5.00;2.00;;;;;7.92;90.71;103183.63;4968900;28;10934;-69
2022/03/27 04:04:23;;;;;;;;;2.25;2.25;;;;;7.92;90.62;103180.91;4967992;28;10801;-69
2022/03/27 04:06:49;;;;;;;;;6.00;3.75;;;;;8.00;89.96;103177.66;4947471;28;10638;-70
2022/03/27 04:09:16;;;;;;;;;2.00;2.00;;;;;7.96;90.51;103190.53;4956984;28;10927;-70
2022/03/27 04:11:43;;;;;;;;;5.00;5.00;;;;;8.00;89.13;103185.75;4961589;28;12632;-72
2022/03/27 04:14:09;;;;;;;;;3.75;2.50;;;;;7.93;88.95;103193.47;4966002;28;10744;-70
2022/03/27 04:16:36;;;;;;;;;6.25;2.00;;;;;7.86;89.75;103192.16;4963394;28;10997;-70
2022/03/27 04:19:03;;;;;;;;;6.50;5.00;;;;;7.88;89.11;103174.03;4966754;28;10707;-74
2022/03/27 04:21:30;;;;;;;;;3.00;3.00;;;;;7.95;88.17;103188.81;4959550;28;12121;-71
2022/03/27 04:23:56;;;;;;;;;6.00;5.00;;;;;7.89;88.40;103191.94;4967793;28;10738;-68
2022/03/27 04:26:29;;;;;;;;;6.00;6.00;;;;;7.93;87.31;103190.75;4965616;28;11537;-68
2022/03/27 04:28:55;;;;;;;;;4.00;4.00;;;;;7.85;88.97;103187.75;4971571;28;10766;-68
2022/03/27 04:31:22;;;;;;;;;2.00;2.00;;;;;7.64;89.95;103192.88;4967455;28;10697;-68
2022/03/27 04:33:48;;;;;;;;;6.50;4.00;;;;;7.69;89.64;103193.44;4964637;28;10686;-70
2022/03/27 04:36:15;;;;;;;;;4.00;4.00;;;;;7.84;89.61;103188.72;4960636;28;10780;-69
2022/03/27 04:38:41;;;;;;;;;4.75;1.75;;;;;7.79;88.58;103196.31;4965639;28;10692;-68
2022/03/27 04:41:07;;;;;;;;;5.75;4.75;;;;;7.63;89.57;103188.47;4960117;28;10847;-68
2022/03/27 04:43:34;;;;;;;;;7.00;5.75;;;;;7.69;89.10;103187.19;4979545;28;10717;-69
2022/03/27 04:46:01;;;;;;;;;6.50;3.75;;;;;7.73;88.94;103191.38;4961348;28;10772;-69
2022/03/27 04:48:27;;;;;;;;;6.00;6.00;;;;;7.83;88.84;103188.84;4965113;28;10915;-69
2022/03/27 04:50:55;;;;;;;;;5.00;4.00;;;;;7.71;87.79;103196.00;4963028;28;10934;-69
2022/03/27 04:53:22;;;;;;;;;5.50;4.25;;;;;7.78;89.11;103193.72;4981456;28;10835;-68
2022/03/27 04:55:49;;;;;;;;;7.00;6.50;;;;;7.78;89.25;103191.03;4979551;28;11147;-71
2022/03/27 04:58:16;;;;;;;;;2.25;2.25;;;;;7.88;88.72;103189.34;4965646;28;10954;-73
2022/03/27 05:00:44;;;;;;;;;5.00;5.00;;;;;7.82;88.17;103198.75;4974103;28;11403;-69
2022/03/27 05:03:11;;;;;;;;;8.50;6.25;;;;;7.68;88.19;103198.91;4965847;28;11787;-68
2022/03/27 05:05:39;;;;;;;;;7.00;6.00;;;;;7.49;89.22;103191.31;4981810;28;11085;-69
2022/03/27 05:08:06;;;;;;;;;6.75;6.75;;;;;7.61;89.09;103193.09;4963537;28;10821;-68
2022/03/27 05:10:34;;;;;;;;;7.75;5.25;;;;;7.69;87.90;103189.88;4964572;28;11030;-70
2022/03/27 05:13:00;;;;;;;;;4.00;4.00;;;;;7.59;88.16;103192.34;4962316;28;10934;-69
2022/03/27 05:15:27;;;;;;;;;6.25;5.50;;;;;7.48;89.47;103196.81;4960913;28;10872;-72
2022/03/27 05:17:56;;;;;;;;;6.00;6.00;;;;;7.56;88.86;103195.28;4962985;28;11038;-69
2022/03/27 05:20:23;;;;;;;;;5.00;4.00;;;;;7.38;89.89;103194.78;4963711;28;10950;-69
2022/03/27 05:22:50;;;;;;;;;6.00;6.00;;;;;7.43;89.54;103198.97;4962707;28;10879;-70
2022/03/27 05:25:18;;;;;;;;;9.50;8.00;;;;;7.45;89.77;103197.91;4962552;28;11098;-69
2022/03/27 05:27:50;;;;;;;;;7.00;6.00;;;;;7.45;90.09;103188.97;4965333;28;11095;-70
2022/03/27 05:30:19;;;;;;;;;9.50;7.75;;;;;7.40;89.03;103194.66;4966010;28;11015;-69
2022/03/27 05:32:46;;;;;;;;;7.25;5.50;;;;;7.46;89.35;103194.25;4977657;28;11155;-69
2022/03/27 05:35:13;;;;;;;;;7.00;4.00;;;;;7.29;89.55;103184.66;4963085;28;10856;-69
2022/03/27 05:37:42;;;;;;;;;7.00;7.00;;;;;7.32;89.27;103191.66;4962904;28;11180;-71
2022/03/27 05:40:11;;;;;;;;;6.25;5.50;;;;;7.31;88.60;103193.50;4963145;28;11107;-69
2022/03/27 05:42:39;;;;;;;;;6.50;6.50;;;;;7.18;89.28;103191.78;4963456;28;11031;-71
2022/03/27 05:45:07;;;;;;;;;8.00;6.00;;;;;7.33;89.64;103199.63;4963049;28;10907;-72
2022/03/27 05:47:35;;;;;;;;;4.00;4.00;;;;;7.39;88.35;103209.09;4962288;28;10928;-70
2022/03/27 05:50:01;;;;;;;;;6.25;4.00;;;;;7.32;89.75;103200.59;4964547;28;10879;-69
2022/03/27 05:52:28;;;;;;;;;6.00;6.00;;;;;7.60;89.34;103195.91;4964406;28;10971;-70
2022/03/27 05:54:56;;;;;;;;;7.00;5.75;;;;;7.57;88.31;103202.41;4961019;28;10939;-71
2022/03/27 05:57:23;;;;;;;;;7.25;5.00;;;;;7.51;87.62;103205.53;4962571;28;11163;-71
2022/03/27 05:59:49;;;;;;;;;4.75;4.00;;;;;7.71;87.69;103210.34;4978314;28;10933;-70
2022/03/27 06:02:16;;;;;;;;;6.00;6.00;;;;;7.94;86.68;103207.81;4962793;28;10782;-69
2022/03/27 06:04:43;;;;;;;;;11.25;7.25;;;;;7.89;86.85;103218.03;4961985;28;10936;-70
2022/03/27 06:07:09;;;;;;;;;4.50;4.50;;;;;8.05;86.28;103205.16;4964247;28;11060;-69
2022/03/27 06:09:37;;;;;;;;;6.00;3.50;;;;;8.66;84.30;103211.31;4959876;28;10899;-69
2022/03/27 06:12:04;;;;;;;;;4.00;4.00;;;;;8.71;82.12;103209.16;4977348;28;10785;-72
2022/03/27 06:14:31;;;;;;;;;4.50;4.50;;;;;8.86;82.20;103207.94;4962502;28;10912;-69
2022/03/27 06:16:58;;;;;;;;;6.50;5.00;;;;;8.49;81.22;103207.25;4964409;28;11421;-70
2022/03/27 06:19:26;;;;;;;;;3.00;3.00;;;;;8.48;82.33;103210.06;4961873;28;10866;-69
2022/03/27 06:21:52;;;;;;;;;4.00;4.00;;;;;8.58;82.67;103214.63;4960586;28;10682;-69
2022/03/27 06:24:19;;;;;;;;;4.00;4.00;;;;;8.62;81.59;103208.00;4961943;28;10608;-69
2022/03/27 06:26:45;;;;;;;;;4.00;4.00;;;;;8.43;81.37;103212.25;4962156;28;10618;-72
2022/03/27 06:29:14;;;;;;;;;10.50;9.00;;;;;8.80;80.73;103216.53;4962205;28;11356;-70
2022/03/27 06:31:41;;;;;;;;;4.00;4.00;;;;;8.84;80.82;103218.00;4960607;28;10614;-72
2022/03/27 06:34:08;;;;;;;;;5.75;5.00;;;;;9.26;79.74;103218.31;4962982;28;10669;-71
2022/03/27 06:36:35;;;;;;;;;6.25;5.25;;;;;8.88;78.50;103230.28;4960929;28;10544;-72
2022/03/27 06:39:03;;;;;;;;;10.00;6.00;;;;;8.52;81.16;103228.59;4963007;28;10555;-70
2022/03/27 06:41:30;;;;;;;;;7.00;7.00;;;;;8.93;80.70;103222.72;4964579;28;10785;-71
2022/03/27 06:43:56;;;;;;;;;8.25;6.25;;;;;9.47;79.85;103226.56;4967594;28;10654;-69
2022/03/27 06:46:23;;;;;;;;;8.25;7.50;;;;;9.47;77.85;103230.13;4965943;28;10588;-70
2022/03/27 06:48:49;;;;;;;;;6.00;6.00;;;;;9.53;77.93;103221.50;4979072;28;10839;-69
2022/03/27 06:51:17;;;;;;;;;6.75;6.75;;;;;8.84;78.86;103218.00;4965098;28;10745;-70
2022/03/27 06:53:44;;;;;;;;;7.00;6.50;;;;;8.92;80.90;103229.09;4965733;28;10842;-69
2022/03/27 06:56:11;;;;;;;;;8.25;5.25;;;;;8.96;80.59;103223.44;4965115;28;10624;-69
2022/03/27 06:58:42;;;;;;;;;6.25;4.25;;;;;9.19;79.76;103222.50;4967411;28;11535;-69
2022/03/27 07:03:57;;;;;;;;;5.75;5.75;;;;;9.08;79.58;103217.06;4975879;28;10978;-70
2022/03/27 07:06:24;;;;;;;;;7.00;7.00;;;;;9.35;78.23;103219.41;4945971;28;10704;-72
2022/03/27 07:08:58;;;;;;;;;4.00;4.00;;;;;9.35;78.55;103220.28;4980774;28;10610;-70
2022/03/27 07:11:31;;;;;;;;;11.00;7.75;;;;;9.38;77.24;103224.56;4983091;28;11120;-71
2022/03/27 07:14:12;;;;;;;;;12.00;10.00;;;;;9.00;77.32;103225.78;4965643;28;11481;-69
2022/03/27 07:16:54;;;;;;;;;7.25;4.75;;;;;8.98;79.84;103219.66;4963894;28;11591;-71
2022/03/27 07:19:21;;;;;;;;;8.00;8.00;;;;;8.90;78.34;103222.06;4979628;28;10641;-71
2022/03/27 07:21:48;;;;;;;;;6.50;6.50;;;;;8.67;79.66;103223.84;4980911;28;11001;-70
2022/03/27 07:24:14;;;;;;;;;6.75;4.50;;;;;8.98;79.60;103218.78;4964616;28;10586;-72
2022/03/27 07:26:43;;;;;;;;;7.00;3.25;;;;;8.95;79.28;103219.88;4965202;28;10805;-70
2022/03/27 07:29:11;;;;;;;;;4.00;4.00;;;;;8.80;78.61;103221.94;4961582;28;10803;-70
2022/03/27 07:31:37;;;;;;;;;10.00;8.00;;;;;8.76;78.68;103233.09;4955423;28;10511;-71
2022/03/27 07:34:04;;;;;;;;;4.25;4.25;;;;;8.62;79.86;103226.03;4964740;28;10870;-69
2022/03/27 07:36:31;;;;;;;;;5.50;5.50;;;;;8.79;79.75;103225.63;4961843;28;10868;-73
2022/03/27 07:38:57;;;;;;;;;12.00;3.25;;;;;8.92;79.21;103234.50;4978555;28;10625;-69
2022/03/27 07:41:24;;;;;;;;;6.50;5.75;;;;;9.01;78.88;103230.22;4964537;28;10657;-72
2022/03/27 07:43:50;;;;;;;;;7.75;5.00;;;;;9.05;78.45;103228.97;4964048;28;10773;-72
2022/03/27 07:46:17;;;;;;;;;11.75;5.00;;;;;9.45;78.05;103226.69;4964414;28;10629;-70
2022/03/27 07:48:43;;;;;;;;;6.50;6.50;;;;;9.65;75.71;103227.75;4965283;28;10972;-72
2022/03/27 07:51:10;;;;;;;;;11.25;8.50;;;;;9.52;75.03;103229.75;4975143;28;10850;-70
2022/03/27 07:53:36;;;;;;;;;7.00;7.00;;;;;10.21;74.81;103230.41;4966656;28;11652;-71
2022/03/27 07:56:04;;;;;;;;;7.50;6.50;;;;;10.30;72.43;103232.34;4978564;28;10579;-69
2022/03/27 07:58:30;;;;;;;;;7.50;5.25;;;;;10.50;72.62;103227.09;4964279;28;10652;-71
2022/03/27 08:00:57;;;;;;;;;7.75;7.50;;;;;10.30;71.82;103232.34;4963494;28;10629;-72
2022/03/27 08:03:23;;;;;;;;;10.50;10.00;;;;;10.13;71.40;103230.13;4963816;28;10558;-70
2022/03/27 08:05:52;;;;;;;;;8.25;8.00;;;;;10.22;72.34;103232.13;4968186;28;10760;-69
2022/03/27 08:08:18;;;;;;;;;11.50;9.50;;;;;10.04;73.17;103225.50;4967002;28;11614;-70
2022/03/27 08:10:45;;;;;;;;;8.00;8.00;;;;;9.83;73.58;103231.69;4966559;28;10595;-70
2022/03/27 08:13:11;;;;;;;;;11.50;8.00;;;;;10.08;72.97;103230.53;4982999;28;10571;-69
2022/03/27 08:15:38;;;;;;;;;10.50;9.75;;;;;10.25;73.42;103231.88;4963768;28;10506;-68
2022/03/27 08:18:05;;;;;;;;;8.00;6.50;;;;;10.95;70.73;103234.00;4964579;28;10488;-69
2022/03/27 08:20:32;;;;;;;;;9.25;9.00;;;;;11.13;68.66;103227.94;4965090;28;10478;-69
2022/03/27 08:22:59;;;;;;;;;9.00;7.50;;;;;11.26;69.46;103234.03;4980668;28;11379;-69
2022/03/27 08:28:11;;;;;;;;;7.50;7.50;;;;;11.63;68.08;103234.31;4977811;28;10516;-72
2022/03/27 08:30:39;;;;;;;;;9.25;9.00;;;;;11.93;65.97;103233.47;4969755;28;10491;-71
2022/03/27 08:33:05;;;;;;;;;8.25;6.75;;;;;12.22;65.29;103233.53;4953889;28;10487;-71
2022/03/27 08:35:32;;;;;;;;;7.25;7.25;;;;;12.47;63.60;103232.09;4963882;28;10233;-70
2022/03/27 08:37:58;;;;;;;;;12.25;10.50;;;;;11.75;65.11;103235.94;4992591;28;10118;-70
2022/03/27 08:40:26;;;;;;;;;6.75;6.75;;;;;11.81;64.57;103235.44;4983518;28;10319;-69
2022/03/27 08:42:53;;;;;;;;;7.25;6.00;;;;;12.18;63.94;103235.66;4983794;28;10214;-68
2022/03/27 08:45:19;;;;;;;;;9.50;9.50;;;;;12.30;64.69;103234.53;4977061;28;11180;-68
2022/03/27 08:47:47;;;;;;;;;8.25;8.25;;;;;12.35;64.76;103231.38;4971765;28;10237;-69
2022/03/27 08:50:29;;;;;;;;;9.25;9.25;;;;;12.60;62.96;103230.81;4969520;28;10167;-69
2022/03/27 08:53:04;;;;;;;;;8.00;5.75;;;;;13.05;60.29;103229.31;4992912;28;10284;-67
2022/03/27 08:55:43;;;;;;;;;6.00;5.75;;;;;13.14;60.97;103234.75;4983036;28;10090;-69
2022/03/27 08:58:11;;;;;;;;;3.00;2.00;;;;;13.11;61.67;103224.13;4962777;28;10023;-69
2022/03/27 09:00:39;;;;;;;;;6.25;6.25;;;;;12.51;63.53;103222.66;4970598;28;9868;-68
2022/03/27 09:03:07;;;;;;;;;7.00;7.00;;;;;13.11;61.47;103229.56;4980989;28;10027;-70
2022/03/27 09:05:36;;;;;;;;;10.00;7.75;;;;;13.47;59.75;103230.66;4990845;28;9988;-68
2022/03/27 09:08:10;;;;;;;;;10.50;10.50;;;;;13.28;60.71;103227.16;4991542;28;9963;-71
2022/03/27 09:10:39;;;;;;;;;11.50;10.25;;;;;13.67;58.88;103230.56;4982332;28;9953;-72
2022/03/27 09:13:11;;;;;;;;;9.00;6.50;;;;;13.64;60.23;103230.88;4971975;28;9931;-71
2022/03/27 09:15:38;;;;;;;;;10.00;7.75;;;;;13.70;58.19;103233.84;4966866;28;9867;-71
2022/03/27 09:18:09;;;;;;;;;10.25;7.75;;;;;13.35;60.39;103228.25;4983572;28;9911;-71
2022/03/27 09:20:51;;;;;;;;;9.00;8.50;;;;;13.42;60.82;103234.84;4985328;28;9777;-70
2022/03/27 09:23:36;;;;;;;;;9.50;7.75;;;;;13.88;59.96;103223.00;4955057;28;9876;-71
2022/03/27 09:26:09;;;;;;;;;9.75;9.75;;;;;13.63;57.76;103238.19;4970518;28;9887;-71
2022/03/27 09:28:41;;;;;;;;;9.00;8.25;;;;;13.61;57.86;103237.47;4973154;28;9928;-74
2022/03/27 09:31:14;;;;;;;;;12.50;9.75;;;;;13.48;59.11;103228.78;4973374;28;9956;-72
2022/03/27 09:33:49;;;;;;;;;8.25;7.25;;;;;13.59;58.22;103234.03;4986347;28;9877;-72
2022/03/27 09:36:16;;;;;;;;;9.25;5.75;;;;;13.80;57.51;103231.91;4979986;28;9872;-72
2022/03/27 09:39:03;;;;;;;;;7.75;7.75;;;;;14.01;57.63;103223.50;4971976;28;9896;-72
2022/03/27 09:41:54;;;;;;;;;6.75;6.75;;;;;14.35;56.17;103226.38;4957442;28;9842;-72
2022/03/27 09:44:29;;;;;;;;;9.00;8.00;;;;;12.49;59.91;103228.25;4972147;28;9595;-74
2022/03/27 09:46:58;;;;;;;;;7.25;5.50;;;;;13.47;58.95;103221.63;4971496;28;9865;-73
2022/03/27 09:49:31;;;;;;;;;7.25;6.00;;;;;13.55;57.78;103238.06;4975336;28;9796;-73
2022/03/27 09:52:00;;;;;;;;;8.50;6.00;;;;;13.73;58.00;103219.06;4962922;28;9874;-73
2022/03/27 09:54:29;;;;;;;;;7.00;7.00;;;;;13.33;59.85;103222.97;4980035;28;9837;-75
2022/03/27 09:56:57;;;;;;;;;8.00;6.25;;;;;13.19;60.64;103216.16;4971046;28;9948;-73
2022/03/27 09:59:30;;;;;;;;;10.25;7.25;;;;;13.80;58.54;103220.16;4986660;28;10012;-73
2022/03/27 10:02:24;;;;;;;;;6.75;6.75;;;;;14.18;57.73;103223.69;4987994;28;9834;-71
2022/03/27 10:04:52;;;;;;;;;11.50;10.25;;;;;13.62;58.98;103214.66;4990632;28;9865;-72
2022/03/27 10:07:19;;;;;;;;;9.50;9.00;;;;;13.39;58.97;103216.09;4971858;28;10058;-73
2022/03/27 10:09:45;;;;;;;;;6.00;6.00;;;;;14.23;57.95;103221.34;4986549;28;9938;-73
2022/03/27 10:12:12;;;;;;;;;9.75;6.75;;;;;14.03;56.83;103223.34;4979231;28;9906;-70
2022/03/27 10:14:44;;;;;;;;;7.00;7.00;;;;;13.08;58.61;103216.28;4964836;28;9833;-72
2022/03/27 10:17:11;;;;;;;;;10.50;7.75;;;;;12.99;58.70;103213.59;4982507;28;10016;-72
2022/03/27 10:19:50;;;;;;;;;7.25;7.25;;;;;13.60;59.03;103211.25;4983925;28;9972;-71
2022/03/27 10:22:23;;;;;;;;;8.75;7.75;;;;;13.81;57.11;103205.53;4976623;28;10791;-73
2022/03/27 10:24:52;;;;;;;;;10.25;5.25;;;;;13.98;56.81;103210.19;4980410;28;9950;-75
2022/03/27 10:27:24;;;;;;;;;8.25;5.50;;;;;14.35;54.99;103204.59;4972596;28;9738;-72
2022/03/27 10:29:51;;;;;;;;;5.00;5.00;;;;;14.31;54.25;103205.06;4974080;28;9620;-73
2022/03/27 10:32:19;;;;;;;;;7.50;6.00;;;;;14.42;53.83;103202.97;4982816;28;9767;-73
2022/03/27 10:34:59;;;;;;;;;4.25;4.25;;;;;14.47;53.74;103194.34;4988188;28;9873;-73
2022/03/27 10:37:47;;;;;;;;;2.00;2.00;;;;;14.41;51.92;103194.94;4974638;28;9534;-74
2022/03/27 10:40:35;;;;;;;;;3.50;3.50;;;;;14.42;51.09;103192.06;4968828;28;9649;-73
2022/03/27 10:43:27;;;;;;;;;5.75;3.50;;;;;14.23;50.44;103191.38;4969961;28;9718;-71
2022/03/27 10:46:21;;;;;;;;;5.25;4.00;;;;;14.78;50.39;103173.81;4933791;28;9637;-72
2022/03/27 10:48:49;;;;;;;;;7.50;7.50;;;;;14.57;49.58;103178.75;4975384;28;9600;-73
2022/03/27 10:51:25;;;;;;;;;7.25;5.25;;;;;14.61;49.52;103173.84;4970775;28;9722;-71
2022/03/27 10:54:01;;;;;;;;;5.75;5.75;;;;;14.53;50.55;103176.50;4981910;28;9727;-73
2022/03/27 10:56:43;;;;;;;;;8.25;4.25;;;;;14.78;50.64;103173.81;4981913;28;9595;-72
2022/03/27 10:59:14;;;;;;;;;4.67;3.33;;;;;15.14;49.07;103172.84;4973026;28;9486;-72
2022/03/27 11:01:43;;;;;;;;;5.00;5.00;;;;;15.20;48.65;103174.94;4973190;28;9401;-73
2022/03/27 11:04:18;;;;;;;;;6.00;6.00;;;;;15.02;49.26;103170.38;4988654;28;9297;-73
2022/03/27 11:06:47;;;;;;;;;6.00;5.67;;;;;14.88;47.52;103168.25;4974442;28;9462;-73
2022/03/27 11:09:32;;;;;;;;;5.00;4.00;;;;;15.30;46.68;103175.66;4971193;28;9458;-70
2022/03/27 11:12:00;;;;;;;;;5.00;4.33;;;;;15.01;43.57;103171.41;4967258;28;9436;-69
2022/03/27 11:14:52;;;;;;;;;8.00;7.00;;;;;14.86;44.48;103167.53;4973357;28;9333;-70
2022/03/27 11:17:44;;;;;;;;;5.00;5.00;;;;;14.14;45.57;103168.66;4970392;28;9401;-69
2022/03/27 11:20:23;;;;;;;;;10.25;6.00;;;;;14.50;47.11;103155.88;4967550;28;9398;-69
2022/03/27 11:22:55;;;;;;;;;10.50;5.00;;;;;14.19;46.80;103147.22;4969879;28;9391;-70
2022/03/27 11:25:24;;;;;;;;;6.75;6.00;;;;;14.58;44.73;103145.03;4971707;28;9552;-71
2022/03/27 11:28:03;;;;;;;;;7.75;5.00;;;;;15.02;45.24;103145.81;4989696;28;9511;-70
2022/03/27 11:30:31;;;;;;;;;7.50;2.75;;;;;14.82;45.14;103140.75;4986454;28;9542;-70
2022/03/27 11:33:18;;;;;;;;;9.25;6.75;;;;;14.65;43.93;103137.94;4980828;28;9599;-70
2022/03/27 11:36:11;;;;;;;;;9.25;6.75;;;;;14.67;42.08;103138.63;4981686;28;9766;-69
2022/03/27 11:39:04;;;;;;;;;4.00;4.00;;;;;15.04;44.20;103141.06;4981620;28;9746;-70
2022/03/27 11:41:30;;;;;;;;;6.00;4.67;;;;;15.04;42.17;103140.22;4978401;28;9529;-69
2022/03/27 11:44:17;;;;;;;;;6.00;5.33;;;;;15.22;41.08;103140.13;4972996;28;9295;-70
2022/03/27 11:46:48;;;;;;;;;7.33;5.67;;;;;15.17;42.25;103132.44;4973595;28;9401;-70
2022/03/27 11:49:15;;;;;;;;;7.00;5.33;;;;;14.96;42.81;103132.00;4978508;28;9494;-70
2022/03/27 11:51:41;;;;;;;;;6.33;3.33;;;;;14.86;44.39;103123.91;4974435;28;9403;-69